Terminal Aerodrome Forecast
Issued by NWS Sioux Falls, SD

Home | Current Version | Previous Version | Text Only | Print | Product List | Glossary On
Versions: 1 2 3 4 5 6 7 8 9 10 11 12 13 14 15
000
FTUS43 KFSD 191634 AAB
TAFFSD
TAF AMD
KFSD 191634Z 1917/2012 19014G28KT P6SM SCT020 SCT120
     FM192000 22013KT P6SM FEW020 SCT120
     FM200200 26007KT P6SM SCT045 BKN100
     FM200700 30007KT P6SM SCT200=

USA.gov is the U.S. government's official web portal to all federal, state and local government web resources and services.